Time;durP1;ratioP1;P1;durP2;ratioP2;P2;SDS_P1;SDS_P2;PMS_P1;PMS_P2;Temp;Humidity;BMP_temperature;BMP_pressure;BME280_temperature;BME280_humidity;BME280_pressure;Samples;Min_cycle;Max_cycle;Signal;HPM_P1;HPM_P2
2022/03/27 00:01:09;;;;;;;23.17;14.13;;;;;;;7.43;62.91;100328.03;5067246;28;20279;-66
2022/03/27 00:03:37;;;;;;;23.70;14.47;;;;;;;7.37;63.20;100327.19;5057197;28;20279;-66
2022/03/27 00:06:04;;;;;;;21.43;14.43;;;;;;;7.35;62.96;100326.34;5056860;28;20189;-66
2022/03/27 00:08:31;;;;;;;34.23;15.20;;;;;;;7.36;62.79;100320.41;5068508;28;20295;-66
2022/03/27 00:13:43;;;;;;;27.10;14.97;;;;;;;7.40;63.07;100314.44;5065869;28;20663;-66
2022/03/27 00:16:10;;;;;;;23.07;15.33;;;;;;;7.43;63.10;100305.09;5069907;28;20303;-66
2022/03/27 00:18:41;;;;;;;24.57;14.67;;;;;;;7.32;63.77;100316.16;5065750;28;20192;-66
2022/03/27 00:21:08;;;;;;;22.00;15.83;;;;;;;7.09;65.15;100327.25;5072501;28;20586;-66
2022/03/27 00:23:35;;;;;;;23.17;15.30;;;;;;;6.95;65.96;100322.16;5072375;28;20223;-66
2022/03/27 00:26:02;;;;;;;24.50;15.23;;;;;;;6.90;66.17;100321.31;5072107;28;20629;-66
2022/03/27 00:28:32;;;;;;;27.03;15.17;;;;;;;6.77;66.04;100305.19;5063296;28;20207;-66
2022/03/27 00:31:00;;;;;;;21.07;14.13;;;;;;;6.85;66.08;100317.91;5069223;28;20200;-66
2022/03/27 00:33:27;;;;;;;17.93;12.63;;;;;;;6.89;65.40;100319.63;5068645;28;20253;-65
2022/03/27 00:35:56;;;;;;;14.70;11.60;;;;;;;6.99;65.21;100326.41;5066477;28;20227;-66
2022/03/27 00:38:24;;;;;;;13.50;9.53;;;;;;;7.09;64.62;100317.91;5072048;28;20303;-66
2022/03/27 00:40:51;;;;;;;20.20;10.87;;;;;;;7.16;64.86;100324.69;5072367;28;20208;-66
2022/03/27 00:43:19;;;;;;;18.03;11.03;;;;;;;7.20;64.49;100318.75;5070710;28;20223;-66
2022/03/27 00:45:46;;;;;;;12.93;10.43;;;;;;;7.23;64.54;100325.53;5070832;28;20647;-66
2022/03/27 00:48:13;;;;;;;13.50;9.47;;;;;;;7.22;64.29;100324.69;5072082;28;20249;-66
2022/03/27 00:50:40;;;;;;;14.83;10.20;;;;;;;7.13;64.33;100318.75;5071393;28;20291;-66
2022/03/27 00:53:09;;;;;;;22.20;11.60;;;;;;;7.02;64.18;100306.00;5070870;28;20668;-66
2022/03/27 00:55:36;;;;;;;16.67;10.97;;;;;;;7.02;64.17;100315.34;5071204;28;20216;-66
2022/03/27 00:58:03;;;;;;;16.10;10.90;;;;;;;7.01;64.42;100316.22;5068153;28;20223;-66
2022/03/27 01:00:45;;;;;;;14.50;9.83;;;;;;;6.92;64.54;100319.63;5067339;28;20291;-66
2022/03/27 01:03:14;;;;;;;19.70;10.20;;;;;;;6.86;65.24;100311.97;5066714;28;20196;-66
2022/03/27 01:05:42;;;;;;;16.33;9.50;;;;;;;6.85;65.29;100312.81;5072024;28;20671;-65
2022/03/27 01:08:12;;;;;;;12.43;10.30;;;;;;;6.81;65.17;100300.94;5063019;28;20204;-66
2022/03/27 01:10:39;;;;;;;12.17;8.17;;;;;;;6.82;65.11;100307.72;5060741;28;20317;-65
2022/03/27 01:13:11;;;;;;;13.50;9.33;;;;;;;6.88;64.96;100302.66;5058235;28;20208;-66
2022/03/27 01:15:41;;;;;;;8.20;7.03;;;;;;;6.94;64.27;100301.78;5059530;28;20302;-65
2022/03/27 01:18:09;;;;;;;16.00;8.27;;;;;;;7.02;64.13;100300.91;5064103;28;20207;-66
2022/03/27 01:20:40;;;;;;;10.67;7.63;;;;;;;7.10;63.51;100299.22;5071405;28;20291;-66
2022/03/27 01:23:10;;;;;;;8.77;7.70;;;;;;;7.19;62.99;100303.44;5069163;28;20201;-66
2022/03/27 01:25:37;;;;;;;11.43;6.63;;;;;;;7.22;62.73;100294.09;5065166;28;20281;-67
2022/03/27 01:28:05;;;;;;;9.10;7.60;;;;;;;7.26;62.67;100300.03;5063556;28;20228;-66
2022/03/27 01:30:32;;;;;;;8.27;7.47;;;;;;;7.27;62.96;100297.47;5060159;28;20294;-66
2022/03/27 01:32:59;;;;;;;9.37;7.50;;;;;;;7.25;63.12;100288.97;5056533;28;20287;-66
2022/03/27 01:35:26;;;;;;;8.97;8.07;;;;;;;7.16;63.34;100277.94;5055597;28;20288;-66
2022/03/27 01:37:55;;;;;;;17.13;8.43;;;;;;;7.07;63.03;100273.72;5069223;28;20297;-66
2022/03/27 01:40:22;;;;;;;13.47;7.93;;;;;;;7.12;63.26;100292.41;5068190;28;20244;-66
2022/03/27 01:42:52;;;;;;;11.17;8.33;;;;;;;7.12;63.17;100297.50;5064318;28;20206;-66
2022/03/27 01:45:19;;;;;;;10.17;8.60;;;;;;;7.05;63.22;100293.25;5063250;28;20205;-66
2022/03/27 01:47:46;;;;;;;10.67;8.67;;;;;;;7.09;63.04;100292.41;5064284;28;20724;-66
2022/03/27 01:50:13;;;;;;;9.27;8.37;;;;;;;7.08;63.19;100293.25;5061718;28;20573;-66
2022/03/27 01:52:40;;;;;;;10.83;8.73;;;;;;;7.14;62.42;100295.78;5062699;28;20699;-66
2022/03/27 01:55:13;;;;;;;10.67;9.17;;;;;;;7.11;63.16;100295.78;5061788;28;20207;-65
2022/03/27 01:57:42;;;;;;;12.93;8.57;;;;;;;7.10;63.25;100293.25;5066099;28;20316;-66
2022/03/27 02:00:12;;;;;;;10.10;9.07;;;;;;;7.02;63.39;100294.97;5070172;28;20287;-66
2022/03/27 02:02:38;;;;;;;9.13;8.40;;;;;;;7.04;63.43;100299.22;5070255;28;20208;-66
2022/03/27 02:05:06;;;;;;;15.50;8.80;;;;;;;7.09;62.84;100294.97;5070371;28;20291;-66
2022/03/27 02:07:37;;;;;;;11.90;8.97;;;;;;;7.14;62.62;100298.34;5066416;28;20629;-66
2022/03/27 02:10:05;;;;;;;9.80;7.80;;;;;;;7.14;62.66;100289.88;5070138;28;20664;-65
2022/03/27 02:12:37;;;;;;;9.23;6.97;;;;;;;7.17;62.40;100284.75;5062902;28;20196;-66
2022/03/27 02:15:05;;;;;;;9.20;8.40;;;;;;;7.21;61.69;100289.81;5058772;28;20216;-65
2022/03/27 02:17:32;;;;;;;11.83;8.87;;;;;;;7.23;61.71;100275.38;5051345;28;20224;-66
2022/03/27 02:20:00;;;;;;;12.97;8.10;;;;;;;7.27;61.33;100277.06;5052085;28;20642;-66
2022/03/27 02:22:26;;;;;;;8.17;7.43;;;;;;;7.28;61.75;100283.84;5069902;28;20227;-66
2022/03/27 02:24:53;;;;;;;9.90;8.60;;;;;;;7.27;61.80;100277.06;5066848;28;20207;-66
2022/03/27 02:27:20;;;;;;;16.90;8.20;;;;;;;7.27;61.74;100277.06;5064635;28;20212;-66
2022/03/27 02:29:49;;;;;;;14.40;9.17;;;;;;;7.25;62.55;100288.97;5065050;28;20291;-66
2022/03/27 02:32:15;;;;;;;9.87;8.87;;;;;;;7.27;61.66;100291.53;5070094;28;20572;-65
2022/03/27 02:34:42;;;;;;;13.30;9.13;;;;;;;7.31;61.75;100288.94;5067146;28;20223;-66
2022/03/27 02:37:09;;;;;;;9.87;8.70;;;;;;;7.32;62.13;100300.84;5065690;28;20773;-66
2022/03/27 02:39:36;;;;;;;12.23;8.10;;;;;;;7.30;61.87;100288.97;5066471;28;20303;-66
2022/03/27 02:42:03;;;;;;;9.77;8.53;;;;;;;7.27;62.39;100292.34;5066475;28;20279;-67
2022/03/27 02:44:30;;;;;;;11.63;8.57;;;;;;;7.25;62.06;100304.28;5062610;28;20702;-66
2022/03/27 02:46:59;;;;;;;10.60;7.50;;;;;;;7.21;62.35;100310.22;5070137;28;20295;-66
2022/03/27 02:49:26;;;;;;;15.47;9.17;;;;;;;7.19;62.80;100306.00;5069120;28;20204;-65
2022/03/27 02:51:53;;;;;;;14.20;8.67;;;;;;;7.12;62.57;100302.59;5069879;28;20719;-67
2022/03/27 02:54:19;;;;;;;14.63;9.70;;;;;;;7.13;62.16;100314.50;5067062;28;20692;-66
2022/03/27 02:56:46;;;;;;;12.70;8.07;;;;;;;7.09;62.83;100312.81;5069655;28;20212;-66
2022/03/27 02:59:13;;;;;;;7.97;7.27;;;;;;;7.04;61.99;100301.78;5069094;28;20231;-66
2022/03/27 03:01:41;;;;;;;12.33;7.93;;;;;;;7.13;62.20;100316.19;5069009;28;20710;-66
2022/03/27 03:04:09;;;;;;;10.00;8.07;;;;;;;7.11;61.96;100316.19;5069594;28;20192;-66
2022/03/27 03:06:37;;;;;;;10.67;7.40;;;;;;;7.15;61.58;100323.00;5068975;28;20249;-66
2022/03/27 03:09:04;;;;;;;12.17;7.50;;;;;;;7.19;61.34;100324.69;5069510;28;20288;-66
2022/03/27 03:11:31;;;;;;;11.50;8.13;;;;;;;7.15;61.87;100323.00;5069456;28;20638;-66
2022/03/27 03:13:58;;;;;;;8.00;7.30;;;;;;;7.14;61.54;100326.38;5069360;28;20192;-66
2022/03/27 03:16:27;;;;;;;7.83;7.10;;;;;;;7.12;62.03;100323.00;5069263;28;20354;-66
2022/03/27 03:18:54;;;;;;;15.53;8.23;;;;;;;7.10;62.46;100329.81;5069033;28;20192;-66
2022/03/27 03:21:23;;;;;;;15.27;7.37;;;;;;;7.09;63.04;100317.91;5062708;28;20209;-66
2022/03/27 03:23:50;;;;;;;8.33;6.77;;;;;;;7.03;62.83;100322.16;5052301;28;20652;-66
2022/03/27 03:26:17;;;;;;;10.10;7.43;;;;;;;7.03;62.99;100323.00;5060679;28;20207;-66
2022/03/27 03:28:44;;;;;;;9.03;7.27;;;;;;;6.91;63.03;100325.59;5056501;28;20228;-66
2022/03/27 03:31:11;;;;;;;9.80;7.47;;;;;;;6.90;63.52;100326.44;5068075;28;20232;-66
2022/03/27 03:33:38;;;;;;;7.57;6.60;;;;;;;6.76;63.45;100315.38;5064830;28;20223;-66
2022/03/27 03:36:05;;;;;;;10.37;7.70;;;;;;;6.85;63.43;100328.97;5063322;28;20299;-66
2022/03/27 03:38:33;;;;;;;8.47;7.33;;;;;;;6.85;63.39;100333.19;5062155;28;20200;-66
2022/03/27 03:41:01;;;;;;;9.70;7.80;;;;;;;6.85;63.33;100333.19;5069149;28;20564;-66
2022/03/27 03:43:28;;;;;;;12.43;7.83;;;;;;;6.86;63.65;100334.91;5060055;28;20212;-66
2022/03/27 03:45:55;;;;;;;8.97;8.10;;;;;;;6.83;63.33;100334.91;5060386;28;20197;-66
2022/03/27 03:48:22;;;;;;;9.37;8.53;;;;;;;6.81;63.35;100337.47;5066666;28;20237;-66
2022/03/27 03:50:49;;;;;;;9.30;8.10;;;;;;;6.84;63.70;100334.06;5069812;28;20286;-66
2022/03/27 03:53:16;;;;;;;10.83;8.20;;;;;;;6.79;63.23;100333.22;5070973;28;20291;-66
2022/03/27 03:55:44;;;;;;;15.47;7.37;;;;;;;6.79;63.05;100340.84;5068264;28;20584;-66
2022/03/27 03:58:11;;;;;;;16.03;7.73;;;;;;;6.78;63.37;100344.28;5068465;28;20231;-66
2022/03/27 04:00:38;;;;;;;10.10;7.47;;;;;;;6.78;63.18;100347.69;5062030;28;20209;-66
2022/03/27 04:03:05;;;;;;;6.90;6.20;;;;;;;6.78;63.29;100349.38;5067276;28;20309;-66
2022/03/27 04:05:33;;;;;;;8.67;7.77;;;;;;;6.78;63.20;100342.59;5064425;28;20662;-66
2022/03/27 04:07:59;;;;;;;10.27;7.00;;;;;;;6.75;63.58;100346.81;5064369;28;20193;-66
2022/03/27 04:10:27;;;;;;;8.33;7.33;;;;;;;6.71;63.46;100337.47;5067273;28;20572;-66
2022/03/27 04:12:55;;;;;;;7.20;6.50;;;;;;;6.72;63.61;100346.81;5072607;28;20211;-66
2022/03/27 04:15:22;;;;;;;10.13;7.17;;;;;;;6.66;63.58;100352.75;5072627;28;20330;-66
2022/03/27 04:17:50;;;;;;;11.50;7.53;;;;;;;6.51;63.76;100326.41;5072474;28;20219;-66
2022/03/27 04:20:17;;;;;;;20.53;8.40;;;;;;;6.63;63.40;100356.97;5067179;28;20192;-66
2022/03/27 04:22:45;;;;;;;12.23;7.10;;;;;;;6.62;63.43;100355.31;5070394;28;20241;-66
2022/03/27 04:25:14;;;;;;;8.43;7.20;;;;;;;6.54;64.14;100344.25;5068156;28;20207;-66
2022/03/27 04:27:41;;;;;;;8.10;7.00;;;;;;;6.51;64.58;100354.44;5059880;28;20577;-66
2022/03/27 04:30:12;;;;;;;8.37;6.77;;;;;;;6.50;64.65;100357.81;5053902;28;20200;-66
2022/03/27 04:32:40;;;;;;;8.67;7.87;;;;;;;6.47;64.64;100345.06;5066606;28;20706;-66
2022/03/27 04:35:09;;;;;;;7.87;7.10;;;;;;;6.52;64.40;100358.69;5071288;28;20215;-66
2022/03/27 04:37:39;;;;;;;14.93;7.67;;;;;;;6.59;64.91;100357.84;5072255;28;20275;-66
2022/03/27 04:40:07;;;;;;;18.10;7.93;;;;;;;6.64;64.71;100363.78;5071810;28;20676;-66
2022/03/27 04:42:34;;;;;;;9.20;8.37;;;;;;;6.72;65.07;100369.75;5069339;28;20625;-66
2022/03/27 04:45:01;;;;;;;13.53;7.53;;;;;;;6.66;64.48;100350.19;5071993;28;20283;-66
2022/03/27 04:47:29;;;;;;;9.70;8.20;;;;;;;6.74;64.96;100366.34;5053753;28;20741;-66
2022/03/27 04:49:56;;;;;;;9.17;8.27;;;;;;;6.73;65.00;100348.50;5053388;28;20215;-66
2022/03/27 04:52:23;;;;;;;11.00;7.33;;;;;;;6.94;64.19;100375.72;5055928;28;20759;-66
2022/03/27 04:54:50;;;;;;;8.40;6.93;;;;;;;6.98;64.20;100375.69;5069413;28;20200;-66
2022/03/27 04:57:17;;;;;;;7.03;6.33;;;;;;;7.08;64.26;100372.28;5066039;28;20216;-66
2022/03/27 04:59:44;;;;;;;10.40;7.17;;;;;;;7.19;64.13;100374.84;5066112;28;20231;-66
2022/03/27 05:02:11;;;;;;;8.83;7.93;;;;;;;7.26;64.70;100379.94;5070622;28;20668;-66
2022/03/27 05:04:40;;;;;;;10.03;7.13;;;;;;;7.38;64.26;100379.91;5068538;28;20197;-66
2022/03/27 05:07:07;;;;;;;7.67;6.90;;;;;;;7.53;62.85;100375.66;5065571;28;20585;-66
2022/03/27 05:09:34;;;;;;;8.50;6.43;;;;;;;7.60;63.33;100382.41;5066695;28;20599;-66
2022/03/27 05:12:01;;;;;;;14.60;7.47;;;;;;;7.64;62.44;100363.69;5062720;28;20204;-66
2022/03/27 05:14:28;;;;;;;8.60;6.67;;;;;;;7.88;63.03;100378.94;5069298;28;20207;-66
2022/03/27 05:16:55;;;;;;;7.27;6.57;;;;;;;8.06;62.94;100376.31;5068426;28;20227;-66
2022/03/27 05:19:22;;;;;;;7.80;7.20;;;;;;;8.16;61.96;100388.19;5071062;28;20319;-66
2022/03/27 05:21:50;;;;;;;9.07;8.13;;;;;;;8.26;61.83;100379.63;5067474;28;20211;-66
2022/03/27 05:24:17;;;;;;;9.07;7.67;;;;;;;8.44;61.31;100386.34;5063979;28;20215;-68
2022/03/27 05:26:44;;;;;;;9.13;8.30;;;;;;;8.57;60.89;100387.13;5063000;28;20587;-66
2022/03/27 05:29:11;;;;;;;14.87;8.20;;;;;;;8.74;60.92;100380.19;5055505;28;20284;-67
2022/03/27 05:31:38;;;;;;;13.93;6.93;;;;;;;8.96;59.55;100389.41;5060515;28;20200;-65
2022/03/27 05:34:05;;;;;;;14.97;8.13;;;;;;;9.04;59.83;100386.78;5069228;28;20192;-66
2022/03/27 05:36:32;;;;;;;9.27;7.77;;;;;;;9.22;58.82;100384.06;5056122;28;20204;-66
2022/03/27 05:39:00;;;;;;;14.30;7.23;;;;;;;9.34;58.38;100384.78;5070468;28;20826;-66
2022/03/27 05:41:27;;;;;;;8.77;6.93;;;;;;;9.48;58.20;100380.41;5068051;28;20257;-66
2022/03/27 05:43:54;;;;;;;9.53;7.43;;;;;;;9.74;57.41;100389.50;5059297;28;20200;-66
2022/03/27 05:46:21;;;;;;;8.70;6.63;;;;;;;9.92;57.79;100394.41;5062787;28;20278;-66
2022/03/27 05:48:48;;;;;;;8.77;7.27;;;;;;;10.17;57.43;100395.88;5058992;28;20197;-66
2022/03/27 05:51:18;;;;;;;9.10;7.27;;;;;;;10.33;56.35;100393.94;5061505;28;20203;-66
2022/03/27 05:53:45;;;;;;;15.37;7.43;;;;;;;10.44;57.11;100400.63;5070642;28;20199;-66
2022/03/27 05:56:13;;;;;;;7.93;5.93;;;;;;;10.63;56.77;100400.38;5070252;28;20685;-66
2022/03/27 05:58:40;;;;;;;8.43;7.07;;;;;;;10.88;56.67;100399.13;5061957;28;20676;-66
2022/03/27 06:01:07;;;;;;;7.57;6.87;;;;;;;11.16;55.53;100402.94;5062465;28;20223;-66
2022/03/27 06:03:34;;;;;;;7.27;5.87;;;;;;;11.43;55.88;100402.50;5055724;28;20232;-67
2022/03/27 06:06:01;;;;;;;9.50;6.33;;;;;;;11.68;52.27;100386.63;5070162;28;20198;-67
2022/03/27 06:08:28;;;;;;;6.13;5.53;;;;;;;12.07;51.28;100402.16;5070031;28;20207;-67
2022/03/27 06:10:56;;;;;;;9.80;6.10;;;;;;;12.36;49.86;100398.97;5069370;28;20200;-66
2022/03/27 06:13:24;;;;;;;9.40;6.63;;;;;;;12.66;49.11;100401.75;5069800;28;20196;-67
2022/03/27 06:15:52;;;;;;;5.60;4.97;;;;;;;12.85;48.60;100403.00;5070634;28;20586;-67
2022/03/27 06:18:19;;;;;;;7.10;5.97;;;;;;;13.04;46.99;100409.41;5066197;28;21042;-67
2022/03/27 06:20:46;;;;;;;5.50;5.07;;;;;;;13.21;46.55;100415.03;5065202;28;20299;-67
2022/03/27 06:23:13;;;;;;;6.93;5.73;;;;;;;13.36;45.98;100412.06;5067489;28;20287;-67
2022/03/27 06:25:40;;;;;;;6.73;6.10;;;;;;;13.53;46.72;100420.22;5051448;28;20638;-67
2022/03/27 06:28:07;;;;;;;11.37;5.67;;;;;;;13.70;45.51;100426.66;5051616;28;20677;-67
2022/03/27 06:30:35;;;;;;;7.40;6.03;;;;;;;13.83;45.76;100428.84;5053641;28;20234;-67
2022/03/27 06:33:03;;;;;;;6.13;5.57;;;;;;;14.04;47.25;100417.09;5065798;28;20203;-67
2022/03/27 06:35:31;;;;;;;8.67;6.17;;;;;;;14.24;44.52;100430.28;5064025;28;20196;-67
2022/03/27 06:37:58;;;;;;;6.80;6.10;;;;;;;14.33;45.12;100419.75;5060571;28;20219;-67
2022/03/27 06:40:25;;;;;;;9.73;6.03;;;;;;;14.50;44.67;100427.84;5068597;28;20269;-67
2022/03/27 06:42:52;;;;;;;9.00;5.97;;;;;;;14.56;44.04;100421.63;5067200;28;20683;-67
2022/03/27 06:45:20;;;;;;;7.70;5.87;;;;;;;14.76;44.80;100427.03;5064222;28;20290;-67
2022/03/27 06:47:49;;;;;;;9.97;6.40;;;;;;;14.94;44.01;100426.47;5058429;28;20665;-67
2022/03/27 06:50:17;;;;;;;13.97;7.53;;;;;;;15.16;43.33;100429.19;5051698;28;20213;-67
2022/03/27 06:52:47;;;;;;;12.70;5.63;;;;;;;15.28;41.50;100427.97;5063293;28;20207;-68
2022/03/27 06:55:15;;;;;;;8.20;6.10;;;;;;;15.36;41.22;100425.97;5059133;28;20205;-67
2022/03/27 06:57:42;;;;;;;8.40;5.87;;;;;;;15.49;41.76;100428.13;5058217;28;20688;-68
2022/03/27 07:03:03;;;;;;;5.40;5.00;;;;;;;15.74;40.39;100422.94;5060398;28;20697;-68
2022/03/27 07:05:30;;;;;;;5.47;5.00;;;;;;;15.89;39.88;100424.16;5064749;28;20218;-67
2022/03/27 07:07:57;;;;;;;6.70;6.07;;;;;;;15.94;40.01;100419.66;5062271;28;20276;-68
2022/03/27 07:10:25;;;;;;;56.30;12.43;;;;;;;16.00;40.96;100414.25;5056104;28;20213;-69
2022/03/27 07:12:52;;;;;;;7.63;5.70;;;;;;;16.21;40.49;100423.84;5059194;28;20196;-68
2022/03/27 07:15:20;;;;;;;7.67;6.07;;;;;;;16.32;39.66;100426.84;5057914;28;20223;-68
2022/03/27 07:17:48;;;;;;;7.40;5.23;;;;;;;16.37;39.42;100427.53;5059993;28;20783;-68
2022/03/27 07:20:20;;;;;;;11.40;5.70;;;;;;;16.55;40.43;100426.00;5061488;28;20292;-68
2022/03/27 07:22:47;;;;;;;9.60;5.93;;;;;;;16.69;39.69;100431.53;5063042;28;20286;-68
2022/03/27 07:25:14;;;;;;;9.93;5.47;;;;;;;16.87;40.27;100429.94;5068498;28;20352;-68
2022/03/27 07:27:42;;;;;;;6.47;5.60;;;;;;;16.98;38.50;100432.97;5060766;28;20738;-68
2022/03/27 07:30:11;;;;;;;11.93;5.27;;;;;;;17.18;38.80;100425.25;5061240;28;20199;-68
2022/03/27 07:32:39;;;;;;;9.53;5.50;;;;;;;17.24;38.73;100430.16;5064524;28;20577;-63
2022/03/27 07:35:07;;;;;;;8.40;5.30;;;;;;;17.45;37.91;100423.25;5067421;28;20210;-62
2022/03/27 07:37:35;;;;;;;6.83;5.00;;;;;;;17.75;37.51;100422.81;5070300;28;20746;-61
2022/03/27 07:40:04;;;;;;;10.30;5.77;;;;;;;17.93;36.00;100415.16;5070588;28;20208;-63
2022/03/27 07:42:32;;;;;;;9.27;5.17;;;;;;;17.96;35.26;100402.03;5062564;28;20200;-63
2022/03/27 07:44:59;;;;;;;6.87;5.57;;;;;;;18.14;35.47;100422.81;5063940;28;21030;-59
2022/03/27 07:47:26;;;;;;;8.97;6.07;;;;;;;18.25;36.34;100409.38;5065023;28;20479;-60
2022/03/27 07:49:53;;;;;;;6.47;5.53;;;;;;;18.40;35.89;100413.00;5065964;28;20208;-61
2022/03/27 07:52:22;;;;;;;8.23;5.83;;;;;;;18.53;35.46;100412.41;5056417;28;20208;-61
2022/03/27 07:54:51;;;;;;;5.23;4.73;;;;;;;18.58;36.14;100410.41;5057399;28;20226;-61
2022/03/27 07:57:20;;;;;;;8.47;5.90;;;;;;;18.83;35.36;100426.53;5055167;28;20287;-62
2022/03/27 07:59:47;;;;;;;7.07;4.67;;;;;;;18.93;34.52;100420.91;5057139;28;20212;-62
2022/03/27 08:02:14;;;;;;;6.17;4.97;;;;;;;18.97;33.62;100412.03;5054458;28;20669;-62
2022/03/27 08:04:41;;;;;;;5.57;5.07;;;;;;;19.08;33.90;100400.22;5066378;28;20209;-62
2022/03/27 08:07:08;;;;;;;5.00;4.47;;;;;;;19.31;34.20;100399.91;5056551;28;20299;-62
2022/03/27 08:09:34;;;;;;;7.83;5.83;;;;;;;19.49;34.43;100400.75;5055730;28;20323;-62
2022/03/27 08:12:03;;;;;;;9.43;5.27;;;;;;;19.63;33.32;100397.47;5055433;28;20200;-62
2022/03/27 08:14:31;;;;;;;8.70;5.67;;;;;;;19.82;33.43;100388.63;5060400;28;20200;-62
2022/03/27 08:16:58;;;;;;;6.47;5.53;;;;;;;20.03;33.96;100394.47;5059501;28;20270;-62
2022/03/27 08:19:26;;;;;;;12.50;5.80;;;;;;;20.19;32.62;100391.88;5053446;28;20704;-62
2022/03/27 08:21:54;;;;;;;6.97;5.50;;;;;;;20.38;32.41;100392.59;5053447;28;20200;-62
2022/03/27 08:24:21;;;;;;;11.50;6.17;;;;;;;20.42;34.06;100375.84;5073278;28;20207;-62
2022/03/27 08:26:56;;;;;;;10.77;5.90;;;;;;;20.62;32.28;100379.97;5073203;28;20291;-62
2022/03/27 08:29:25;;;;;;;21.00;7.00;;;;;;;20.60;31.55;100377.47;5073328;28;20196;-63
2022/03/27 08:31:53;;;;;;;13.57;6.30;;;;;;;20.71;31.97;100375.06;5073267;28;20222;-62
2022/03/27 08:34:20;;;;;;;9.00;6.13;;;;;;;20.91;30.14;100372.19;5072049;28;20287;-62
2022/03/27 08:36:47;;;;;;;20.80;7.10;;;;;;;20.82;30.14;100377.09;5073150;28;20276;-63
2022/03/27 08:39:15;;;;;;;8.63;6.70;;;;;;;20.75;30.55;100366.16;5072828;28;20220;-62
2022/03/27 08:41:44;;;;;;;9.30;5.77;;;;;;;20.84;31.20;100354.41;5056908;28;20204;-62
2022/03/27 08:44:12;;;;;;;7.90;5.90;;;;;;;20.93;30.88;100354.72;5055336;28;20273;-62
2022/03/27 08:46:41;;;;;;;13.60;5.93;;;;;;;21.12;32.03;100349.28;5053185;28;20625;-63
2022/03/27 08:49:12;;;;;;;6.80;5.93;;;;;;;21.26;31.43;100345.88;5053047;28;20198;-62
2022/03/27 08:51:48;;;;;;;12.90;6.43;;;;;;;21.46;30.43;100354.19;5053114;28;20210;-62
2022/03/27 08:54:20;;;;;;;12.70;7.00;;;;;;;21.55;30.49;100342.34;5052532;28;20290;-62
2022/03/27 08:57:00;;;;;;;7.97;6.40;;;;;;;21.51;27.52;100345.25;5052897;28;20197;-62
2022/03/27 08:59:28;;;;;;;17.97;7.63;;;;;;;21.57;28.65;100344.88;5052398;28;20624;-62
2022/03/27 09:01:58;;;;;;;10.80;5.83;;;;;;;21.46;28.07;100342.91;5052914;28;20208;-62
2022/03/27 09:04:26;;;;;;;6.80;6.20;;;;;;;21.61;29.57;100343.78;5062018;28;20208;-63
2022/03/27 09:06:53;;;;;;;11.43;6.60;;;;;;;21.73;27.13;100340.41;5072610;28;20306;-63
2022/03/27 09:09:20;;;;;;;7.63;6.80;;;;;;;21.94;29.19;100333.88;5072302;28;20285;-63
2022/03/27 09:11:47;;;;;;;27.90;10.83;;;;;;;21.88;25.43;100335.06;5065030;28;20631;-62
2022/03/27 09:14:16;;;;;;;19.07;9.63;;;;;;;21.92;27.48;100326.16;5064110;28;20202;-63
2022/03/27 09:17:05;;;;;;;30.53;11.50;;;;;;;22.12;28.07;100331.91;5072295;28;20232;-62
2022/03/27 09:19:38;;;;;;;23.37;11.93;;;;;;;22.19;29.36;100327.97;5054918;28;20239;-63
2022/03/27 09:22:17;;;;;;;16.97;11.47;;;;;;;22.21;26.92;100326.09;5070822;28;20281;-62
2022/03/27 09:24:46;;;;;;;22.00;11.30;;;;;;;22.29;28.12;100332.53;5072469;28;20626;-63
2022/03/27 09:27:14;;;;;;;19.80;10.47;;;;;;;22.39;27.18;100325.75;5068376;28;20231;-63
2022/03/27 09:29:59;;;;;;;8.43;6.80;;;;;;;22.40;25.06;100335.28;5052116;28;20196;-63
2022/03/27 09:32:29;;;;;;;11.20;6.47;;;;;;;22.27;25.61;100308.25;5052084;28;20260;-63
2022/03/27 09:35:00;;;;;;;7.57;6.93;;;;;;;22.45;25.81;100325.38;5072063;28;20271;-63
2022/03/27 09:37:31;;;;;;;8.67;6.37;;;;;;;;;;5072273;28;20207;-63
2022/03/27 09:39:58;;;;;;;9.17;7.53;;;;;;;22.49;25.15;100321.63;5072044;28;20227;-63
2022/03/27 09:42:25;;;;;;;7.23;6.53;;;;;;;22.63;26.16;100322.50;5072094;28;20198;-63
2022/03/27 09:45:11;;;;;;;12.67;6.30;;;;;;;22.54;26.84;100308.28;5071906;28;20200;-63
2022/03/27 09:47:39;;;;;;;9.77;6.50;;;;;;;22.56;24.00;100316.00;5071134;28;20195;-62
2022/03/27 09:50:07;;;;;;;56.10;9.47;;;;;;;22.44;26.34;100302.81;5071595;28;20282;-63
2022/03/27 09:52:34;;;;;;;8.83;8.03;;;;;;;22.56;24.79;100316.84;5071729;28;20286;-62
2022/03/27 09:55:05;;;;;;;8.63;6.33;;;;;;;22.67;25.43;100314.41;5071582;28;20210;-63
2022/03/27 09:57:33;;;;;;;7.23;6.53;;;;;;;22.87;25.82;100310.47;5071501;28;20304;-63
2022/03/27 10:00:14;;;;;;;11.43;6.60;;;;;;;22.73;23.51;100314.00;5071146;28;20213;-64
2022/03/27 10:02:44;;;;;;;12.23;6.60;;;;;;;22.74;25.07;100310.47;5070997;28;20196;-64
2022/03/27 10:05:13;;;;;;;9.57;6.27;;;;;;;22.88;26.07;100305.13;5064449;28;20210;-64
2022/03/27 10:07:42;;;;;;;12.47;6.77;;;;;;;22.96;25.74;100297.63;5066864;28;20293;-63
2022/03/27 10:10:11;;;;;;;12.80;6.53;;;;;;;22.89;25.15;100298.97;5064596;28;20200;-64
2022/03/27 10:12:39;;;;;;;7.47;6.77;;;;;;;22.82;24.81;100305.53;5062552;28;20208;-64
2022/03/27 10:15:09;;;;;;;23.03;9.20;;;;;;;22.95;26.11;100292.50;5051569;28;21122;-64
2022/03/27 10:17:38;;;;;;;14.95;7.95;;;;;;;22.91;24.47;100285.78;5054055;28;20524;-68
2022/03/27 10:20:09;;;;;;;11.50;9.17;;;;;;;23.03;24.67;100290.22;5063900;28;20223;-69
2022/03/27 10:22:40;;;;;;;7.57;6.23;;;;;;;23.19;25.14;100279.53;5063294;28;20289;-69
2022/03/27 10:25:09;;;;;;;10.47;6.63;;;;;;;23.14;26.02;100276.38;5058770;28;21072;-70
2022/03/27 10:27:38;;;;;;;6.93;6.43;;;;;;;23.25;25.08;100289.59;5060907;28;20603;-69
2022/03/27 10:30:08;;;;;;;37.87;7.70;;;;;;;23.30;24.79;100292.72;5067048;28;20362;-69
2022/03/27 10:32:36;;;;;;;7.20;6.60;;;;;;;23.20;22.72;100265.53;5068843;28;20207;-70
2022/03/27 10:35:15;;;;;;;6.00;5.50;;;;;;;23.37;24.37;100273.03;5062859;28;20204;-69
2022/03/27 10:37:48;;;;;;;12.50;5.93;;;;;;;23.43;24.35;100272.63;5059218;28;20207;-70
2022/03/27 10:40:21;;;;;;;7.17;6.47;;;;;;;23.44;24.89;100279.56;5058807;28;20216;-69
2022/03/27 10:42:57;;;;;;;6.67;6.07;;;;;;;23.50;24.47;100260.81;5062783;28;20211;-69
2022/03/27 10:45:25;;;;;;;13.30;7.07;;;;;;;23.65;27.19;100272.81;5066786;28;20227;-69
2022/03/27 10:48:15;;;;;;;8.33;6.03;;;;;;;23.76;25.51;100267.66;5063189;28;20750;-69
2022/03/27 10:50:49;;;;;;;24.40;7.37;;;;;;;23.67;25.45;100264.88;5057780;28;20327;-69
2022/03/27 10:53:16;;;;;;;7.00;6.50;;;;;;;23.73;25.03;100256.56;5055037;28;20279;-69
2022/03/27 10:55:45;;;;;;;8.50;5.70;;;;;;;23.74;23.22;100255.63;5053806;28;20287;-69
2022/03/27 10:58:31;;;;;;;47.93;27.17;;;;;;;23.63;24.48;100253.78;5061940;28;20262;-68
2022/03/27 11:00:59;;;;;;;14.07;9.87;;;;;;;23.66;24.47;100258.78;5057752;28;20655;-69
2022/03/27 11:03:49;;;;;;;10.10;8.07;;;;;;;23.58;23.61;100244.56;5066941;28;20203;-69
2022/03/27 11:06:25;;;;;;;18.80;11.40;;;;;;;23.60;24.44;100254.00;5062078;28;20724;-68
2022/03/27 11:08:54;;;;;;;12.63;8.50;;;;;;;23.51;23.99;100252.03;5060865;28;20588;-69
2022/03/27 11:11:54;;;;;;;8.20;7.20;;;;;;;23.60;26.29;100247.91;5058687;28;20199;-68
2022/03/27 11:14:54;;;;;;;8.93;7.87;;;;;;;23.57;25.85;100233.25;5054868;28;20207;-68
2022/03/27 11:17:38;;;;;;;18.53;7.40;;;;;;;23.64;23.95;100247.59;5053199;28;20205;-67
2022/03/27 11:20:07;;;;;;;21.67;8.17;;;;;;;23.59;24.18;100235.78;5058007;28;20219;-68
2022/03/27 11:22:49;;;;;;;11.67;7.47;;;;;;;23.52;23.73;100230.16;5052487;28;20675;-68
2022/03/27 11:25:45;;;;;;;7.30;6.57;;;;;;;23.67;24.97;100229.06;5049481;28;20295;-68
2022/03/27 11:28:13;;;;;;;7.03;6.37;;;;;;;23.75;24.92;100225.91;5066142;28;20217;-68
2022/03/27 11:30:56;;;;;;;12.50;6.37;;;;;;;23.60;23.71;100206.88;5058952;28;20283;-68
2022/03/27 11:33:25;;;;;;;8.07;7.27;;;;;;;23.69;25.19;100219.28;5044178;28;20283;-68
2022/03/27 11:36:23;;;;;;;9.50;7.33;;;;;;;23.70;24.58;100218.34;5058250;28;20210;-68
2022/03/27 11:39:02;;;;;;;13.47;7.43;;;;;;;23.55;23.82;100214.22;5062720;28;20277;-68